sensor_id;sensor_type;location;lat;lon;timestamp;temperature;humidity
20483;DHT22;10400;53.198;6.592;2023-10-09T00:01:49;14.60;99.90
20483;DHT22;10400;53.198;6.592;2023-10-09T00:04:15;14.70;99.90
20483;DHT22;10400;53.198;6.592;2023-10-09T00:06:46;14.60;99.90
20483;DHT22;10400;53.198;6.592;2023-10-09T00:09:12;14.60;99.90
20483;DHT22;10400;53.198;6.592;2023-10-09T00:11:50;14.60;99.90
20483;DHT22;10400;53.198;6.592;2023-10-09T00:14:29;14.60;99.90
20483;DHT22;10400;53.198;6.592;2023-10-09T00:17:06;14.60;99.90
20483;DHT22;10400;53.198;6.592;2023-10-09T00:19:37;14.60;99.90
20483;DHT22;10400;53.198;6.592;2023-10-09T00:22:03;14.60;99.90
20483;DHT22;10400;53.198;6.592;2023-10-09T00:24:46;14.60;99.90
20483;DHT22;10400;53.198;6.592;2023-10-09T00:27:15;14.60;99.90
20483;DHT22;10400;53.198;6.592;2023-10-09T00:29:41;14.60;99.90
20483;DHT22;10400;53.198;6.592;2023-10-09T00:32:11;14.60;99.90
20483;DHT22;10400;53.198;6.592;2023-10-09T00:34:52;14.60;99.90
20483;DHT22;10400;53.198;6.592;2023-10-09T00:37:18;14.60;99.90
20483;DHT22;10400;53.198;6.592;2023-10-09T00:39:49;14.70;99.90
20483;DHT22;10400;53.198;6.592;2023-10-09T00:42:21;14.60;99.90
20483;DHT22;10400;53.198;6.592;2023-10-09T00:45:02;14.60;99.90
20483;DHT22;10400;53.198;6.592;2023-10-09T00:47:34;14.70;99.90
20483;DHT22;10400;53.198;6.592;2023-10-09T00:50:07;14.70;99.90
20483;DHT22;10400;53.198;6.592;2023-10-09T00:52:53;14.70;99.90
20483;DHT22;10400;53.198;6.592;2023-10-09T00:55:27;14.70;99.90
20483;DHT22;10400;53.198;6.592;2023-10-09T00:58:03;14.70;99.90
20483;DHT22;10400;53.198;6.592;2023-10-09T01:00:35;14.70;99.90
20483;DHT22;10400;53.198;6.592;2023-10-09T01:03:12;14.70;99.90
20483;DHT22;10400;53.198;6.592;2023-10-09T01:05:45;14.70;99.90
20483;DHT22;10400;53.198;6.592;2023-10-09T01:08:28;14.60;99.90
20483;DHT22;10400;53.198;6.592;2023-10-09T01:11:13;14.70;99.90
20483;DHT22;10400;53.198;6.592;2023-10-09T01:13:49;14.70;99.90
20483;DHT22;10400;53.198;6.592;2023-10-09T01:16:24;14.70;99.90
20483;DHT22;10400;53.198;6.592;2023-10-09T01:18:54;14.70;99.90
20483;DHT22;10400;53.198;6.592;2023-10-09T01:21:24;14.80;99.90
20483;DHT22;10400;53.198;6.592;2023-10-09T01:23:51;14.70;99.90
20483;DHT22;10400;53.198;6.592;2023-10-09T01:26:30;14.70;99.90
20483;DHT22;10400;53.198;6.592;2023-10-09T01:29:09;14.70;99.90
20483;DHT22;10400;53.198;6.592;2023-10-09T01:31:47;14.80;99.90
20483;DHT22;10400;53.198;6.592;2023-10-09T01:34:30;14.80;99.90
20483;DHT22;10400;53.198;6.592;2023-10-09T01:37:15;14.80;99.90
20483;DHT22;10400;53.198;6.592;2023-10-09T01:39:51;14.80;99.90
20483;DHT22;10400;53.198;6.592;2023-10-09T01:42:20;14.80;99.90
20483;DHT22;10400;53.198;6.592;2023-10-09T01:44:55;14.80;99.90
20483;DHT22;10400;53.198;6.592;2023-10-09T01:47:23;14.80;99.90
20483;DHT22;10400;53.198;6.592;2023-10-09T01:49:51;14.80;99.90
20483;DHT22;10400;53.198;6.592;2023-10-09T01:52:19;14.70;99.90
20483;DHT22;10400;53.198;6.592;2023-10-09T01:54:46;14.70;99.90
20483;DHT22;10400;53.198;6.592;2023-10-09T01:57:15;14.80;99.90
20483;DHT22;10400;53.198;6.592;2023-10-09T01:59:47;14.80;99.90
20483;DHT22;10400;53.198;6.592;2023-10-09T02:02:18;14.80;99.90
20483;DHT22;10400;53.198;6.592;2023-10-09T02:05:05;14.70;99.90
20483;DHT22;10400;53.198;6.592;2023-10-09T02:07:40;14.70;99.90
20483;DHT22;10400;53.198;6.592;2023-10-09T02:10:10;14.70;99.90
20483;DHT22;10400;53.198;6.592;2023-10-09T02:13:04;14.80;99.90
20483;DHT22;10400;53.198;6.592;2023-10-09T02:15:38;14.70;99.90
20483;DHT22;10400;53.198;6.592;2023-10-09T02:18:07;14.70;99.90
20483;DHT22;10400;53.198;6.592;2023-10-09T02:20:52;14.70;99.90
20483;DHT22;10400;53.198;6.592;2023-10-09T02:23:41;14.70;99.90
20483;DHT22;10400;53.198;6.592;2023-10-09T02:26:11;14.70;99.90
20483;DHT22;10400;53.198;6.592;2023-10-09T02:28:45;14.70;99.90
20483;DHT22;10400;53.198;6.592;2023-10-09T02:31:31;14.80;99.90
20483;DHT22;10400;53.198;6.592;2023-10-09T02:34:09;14.70;99.90
20483;DHT22;10400;53.198;6.592;2023-10-09T02:36:36;14.70;99.90
20483;DHT22;10400;53.198;6.592;2023-10-09T02:39:15;14.70;99.90
20483;DHT22;10400;53.198;6.592;2023-10-09T02:42:04;14.70;99.90
20483;DHT22;10400;53.198;6.592;2023-10-09T02:44:45;14.70;99.90
20483;DHT22;10400;53.198;6.592;2023-10-09T02:47:19;14.70;99.90
20483;DHT22;10400;53.198;6.592;2023-10-09T02:50:05;14.70;99.90
20483;DHT22;10400;53.198;6.592;2023-10-09T02:52:45;14.70;99.90
20483;DHT22;10400;53.198;6.592;2023-10-09T02:55:13;14.70;99.90
20483;DHT22;10400;53.198;6.592;2023-10-09T02:57:52;14.70;99.90
20483;DHT22;10400;53.198;6.592;2023-10-09T03:00:31;14.70;99.90
20483;DHT22;10400;53.198;6.592;2023-10-09T03:02:58;14.70;99.90
20483;DHT22;10400;53.198;6.592;2023-10-09T03:05:25;14.70;99.90
20483;DHT22;10400;53.198;6.592;2023-10-09T03:07:54;14.70;99.90
20483;DHT22;10400;53.198;6.592;2023-10-09T03:10:22;14.60;99.90
20483;DHT22;10400;53.198;6.592;2023-10-09T03:12:48;14.70;99.90
20483;DHT22;10400;53.198;6.592;2023-10-09T03:15:19;14.70;99.90
20483;DHT22;10400;53.198;6.592;2023-10-09T03:17:46;14.70;99.90
20483;DHT22;10400;53.198;6.592;2023-10-09T03:20:14;14.70;99.90
20483;DHT22;10400;53.198;6.592;2023-10-09T03:22:40;14.80;99.90
20483;DHT22;10400;53.198;6.592;2023-10-09T03:25:07;14.70;99.90
20483;DHT22;10400;53.198;6.592;2023-10-09T03:27:42;14.80;99.90
20483;DHT22;10400;53.198;6.592;2023-10-09T03:30:14;14.70;99.90
20483;DHT22;10400;53.198;6.592;2023-10-09T03:32:43;14.80;99.90
20483;DHT22;10400;53.198;6.592;2023-10-09T03:35:09;14.80;99.90
20483;DHT22;10400;53.198;6.592;2023-10-09T03:37:39;14.80;99.90
20483;DHT22;10400;53.198;6.592;2023-10-09T03:40:05;14.90;99.90
20483;DHT22;10400;53.198;6.592;2023-10-09T03:42:33;14.90;99.90
20483;DHT22;10400;53.198;6.592;2023-10-09T03:45:01;14.90;99.90
20483;DHT22;10400;53.198;6.592;2023-10-09T03:47:31;15.00;99.90
20483;DHT22;10400;53.198;6.592;2023-10-09T03:49:57;14.90;99.90
20483;DHT22;10400;53.198;6.592;2023-10-09T03:52:23;15.00;99.90
20483;DHT22;10400;53.198;6.592;2023-10-09T03:54:52;15.00;99.90
20483;DHT22;10400;53.198;6.592;2023-10-09T03:57:18;15.00;99.90
20483;DHT22;10400;53.198;6.592;2023-10-09T03:59:46;15.00;99.90
20483;DHT22;10400;53.198;6.592;2023-10-09T04:02:17;15.00;99.90
20483;DHT22;10400;53.198;6.592;2023-10-09T04:04:43;15.00;99.90
20483;DHT22;10400;53.198;6.592;2023-10-09T04:07:13;15.00;99.90
20483;DHT22;10400;53.198;6.592;2023-10-09T04:09:38;15.00;99.90
20483;DHT22;10400;53.198;6.592;2023-10-09T04:12:10;15.10;99.90
20483;DHT22;10400;53.198;6.592;2023-10-09T04:14:39;15.10;99.90
20483;DHT22;10400;53.198;6.592;2023-10-09T04:17:23;15.10;99.90
20483;DHT22;10400;53.198;6.592;2023-10-09T04:19:49;15.20;99.90
20483;DHT22;10400;53.198;6.592;2023-10-09T04:22:38;15.20;99.90
20483;DHT22;10400;53.198;6.592;2023-10-09T04:25:08;15.20;99.90
20483;DHT22;10400;53.198;6.592;2023-10-09T04:27:42;15.20;99.90
20483;DHT22;10400;53.198;6.592;2023-10-09T04:30:10;15.20;99.90
20483;DHT22;10400;53.198;6.592;2023-10-09T04:32:41;15.30;99.90
20483;DHT22;10400;53.198;6.592;2023-10-09T04:35:10;15.30;99.90
20483;DHT22;10400;53.198;6.592;2023-10-09T04:37:45;15.40;99.90
20483;DHT22;10400;53.198;6.592;2023-10-09T04:40:20;15.40;99.90
20483;DHT22;10400;53.198;6.592;2023-10-09T04:43:05;15.40;99.90
20483;DHT22;10400;53.198;6.592;2023-10-09T04:45:46;15.50;99.90
20483;DHT22;10400;53.198;6.592;2023-10-09T04:48:30;15.60;99.90
20483;DHT22;10400;53.198;6.592;2023-10-09T04:51:03;15.60;99.90
20483;DHT22;10400;53.198;6.592;2023-10-09T04:53:53;15.60;99.90
20483;DHT22;10400;53.198;6.592;2023-10-09T04:56:38;15.70;99.90
20483;DHT22;10400;53.198;6.592;2023-10-09T04:59:17;15.70;99.90
20483;DHT22;10400;53.198;6.592;2023-10-09T05:01:44;15.70;99.90
20483;DHT22;10400;53.198;6.592;2023-10-09T05:04:23;15.70;99.90
20483;DHT22;10400;53.198;6.592;2023-10-09T05:07:04;15.70;99.90
20483;DHT22;10400;53.198;6.592;2023-10-09T05:09:48;15.80;99.90
20483;DHT22;10400;53.198;6.592;2023-10-09T05:12:21;15.80;99.90
20483;DHT22;10400;53.198;6.592;2023-10-09T05:14:52;15.80;99.90
20483;DHT22;10400;53.198;6.592;2023-10-09T05:17:38;15.80;99.90
20483;DHT22;10400;53.198;6.592;2023-10-09T05:20:05;15.80;99.90
20483;DHT22;10400;53.198;6.592;2023-10-09T05:22:49;15.80;99.90
20483;DHT22;10400;53.198;6.592;2023-10-09T05:25:24;15.80;99.90
20483;DHT22;10400;53.198;6.592;2023-10-09T05:28:08;15.90;99.90
20483;DHT22;10400;53.198;6.592;2023-10-09T05:30:52;15.80;99.90
20483;DHT22;10400;53.198;6.592;2023-10-09T05:33:32;15.90;99.90
20483;DHT22;10400;53.198;6.592;2023-10-09T05:36:03;15.90;99.90
20483;DHT22;10400;53.198;6.592;2023-10-09T05:38:47;15.90;99.90
20483;DHT22;10400;53.198;6.592;2023-10-09T05:41:24;15.90;99.90
20483;DHT22;10400;53.198;6.592;2023-10-09T05:44:10;15.90;99.90
20483;DHT22;10400;53.198;6.592;2023-10-09T05:47:08;16.00;99.90
20483;DHT22;10400;53.198;6.592;2023-10-09T05:49:52;16.00;99.90
20483;DHT22;10400;53.198;6.592;2023-10-09T05:52:41;16.00;99.90
20483;DHT22;10400;53.198;6.592;2023-10-09T05:55:06;16.00;99.90
20483;DHT22;10400;53.198;6.592;2023-10-09T05:57:45;16.00;99.90
20483;DHT22;10400;53.198;6.592;2023-10-09T06:00:29;16.00;99.90
20483;DHT22;10400;53.198;6.592;2023-10-09T06:03:13;16.00;99.90
20483;DHT22;10400;53.198;6.592;2023-10-09T06:05:51;16.00;99.90
20483;DHT22;10400;53.198;6.592;2023-10-09T06:08:18;16.00;99.90
20483;DHT22;10400;53.198;6.592;2023-10-09T06:10:51;16.10;99.90
20483;DHT22;10400;53.198;6.592;2023-10-09T06:13:32;16.00;99.90
20483;DHT22;10400;53.198;6.592;2023-10-09T06:16:06;16.10;99.90
20483;DHT22;10400;53.198;6.592;2023-10-09T06:18:45;16.10;99.90
20483;DHT22;10400;53.198;6.592;2023-10-09T06:21:20;16.10;99.90
20483;DHT22;10400;53.198;6.592;2023-10-09T06:24:09;16.10;99.90
20483;DHT22;10400;53.198;6.592;2023-10-09T06:26:45;16.20;99.90
20483;DHT22;10400;53.198;6.592;2023-10-09T06:29:24;16.20;99.90
20483;DHT22;10400;53.198;6.592;2023-10-09T06:32:04;16.20;99.90
20483;DHT22;10400;53.198;6.592;2023-10-09T06:34:50;16.20;99.90
20483;DHT22;10400;53.198;6.592;2023-10-09T06:37:41;16.20;99.90
20483;DHT22;10400;53.198;6.592;2023-10-09T06:40:33;16.20;99.90
20483;DHT22;10400;53.198;6.592;2023-10-09T06:43:03;16.20;99.90
20483;DHT22;10400;53.198;6.592;2023-10-09T06:45:50;16.20;99.90
20483;DHT22;10400;53.198;6.592;2023-10-09T06:48:45;16.20;99.90
20483;DHT22;10400;53.198;6.592;2023-10-09T06:51:14;16.30;99.90
20483;DHT22;10400;53.198;6.592;2023-10-09T06:53:52;16.30;99.90
20483;DHT22;10400;53.198;6.592;2023-10-09T06:56:21;16.20;99.90
20483;DHT22;10400;53.198;6.592;2023-10-09T06:59:10;16.20;99.90
20483;DHT22;10400;53.198;6.592;2023-10-09T07:01:52;16.20;99.90
20483;DHT22;10400;53.198;6.592;2023-10-09T07:04:34;16.20;99.90
20483;DHT22;10400;53.198;6.592;2023-10-09T07:07:00;16.20;99.90
20483;DHT22;10400;53.198;6.592;2023-10-09T07:09:27;16.20;99.90
20483;DHT22;10400;53.198;6.592;2023-10-09T07:12:08;16.30;99.90
20483;DHT22;10400;53.198;6.592;2023-10-09T07:14:51;16.30;99.90
20483;DHT22;10400;53.198;6.592;2023-10-09T07:17:26;16.30;99.90
20483;DHT22;10400;53.198;6.592;2023-10-09T07:20:01;16.30;99.90
20483;DHT22;10400;53.198;6.592;2023-10-09T07:22:40;16.30;99.90
20483;DHT22;10400;53.198;6.592;2023-10-09T07:25:19;16.30;99.90
20483;DHT22;10400;53.198;6.592;2023-10-09T07:28:04;16.30;99.90
20483;DHT22;10400;53.198;6.592;2023-10-09T07:30:44;16.30;99.90
20483;DHT22;10400;53.198;6.592;2023-10-09T07:33:11;16.40;99.90
20483;DHT22;10400;53.198;6.592;2023-10-09T07:38:19;16.40;99.90
20483;DHT22;10400;53.198;6.592;2023-10-09T07:40:47;16.40;99.90
20483;DHT22;10400;53.198;6.592;2023-10-09T07:43:28;16.40;99.90
20483;DHT22;10400;53.198;6.592;2023-10-09T07:46:10;16.40;99.90
20483;DHT22;10400;53.198;6.592;2023-10-09T07:48:58;16.40;99.90
20483;DHT22;10400;53.198;6.592;2023-10-09T07:51:26;16.40;99.90
20483;DHT22;10400;53.198;6.592;2023-10-09T07:53:59;16.50;99.90
20483;DHT22;10400;53.198;6.592;2023-10-09T07:56:38;16.40;99.90
20483;DHT22;10400;53.198;6.592;2023-10-09T07:59:05;16.40;99.90
20483;DHT22;10400;53.198;6.592;2023-10-09T08:04:03;16.50;99.90
20483;DHT22;10400;53.198;6.592;2023-10-09T08:06:38;16.50;99.90
20483;DHT22;10400;53.198;6.592;2023-10-09T08:09:07;16.40;99.90
20483;DHT22;10400;53.198;6.592;2023-10-09T08:11:44;16.50;99.90
20483;DHT22;10400;53.198;6.592;2023-10-09T08:14:14;16.50;99.90
20483;DHT22;10400;53.198;6.592;2023-10-09T08:16:59;16.50;99.90
20483;DHT22;10400;53.198;6.592;2023-10-09T08:19:47;16.50;99.90
20483;DHT22;10400;53.198;6.592;2023-10-09T08:22:27;16.50;99.90
20483;DHT22;10400;53.198;6.592;2023-10-09T08:24:57;16.50;99.90
20483;DHT22;10400;53.198;6.592;2023-10-09T08:27:27;16.50;99.90
20483;DHT22;10400;53.198;6.592;2023-10-09T08:30:04;16.60;99.90
20483;DHT22;10400;53.198;6.592;2023-10-09T08:32:42;16.60;99.90
20483;DHT22;10400;53.198;6.592;2023-10-09T08:35:09;16.50;99.90
20483;DHT22;10400;53.198;6.592;2023-10-09T08:37:53;16.50;99.90
20483;DHT22;10400;53.198;6.592;2023-10-09T08:40:20;16.50;99.90
20483;DHT22;10400;53.198;6.592;2023-10-09T08:42:52;16.60;99.90
20483;DHT22;10400;53.198;6.592;2023-10-09T08:45:22;16.60;99.90
20483;DHT22;10400;53.198;6.592;2023-10-09T08:47:56;16.70;99.90
20483;DHT22;10400;53.198;6.592;2023-10-09T08:50:22;16.60;99.90
20483;DHT22;10400;53.198;6.592;2023-10-09T08:52:54;16.60;99.90
20483;DHT22;10400;53.198;6.592;2023-10-09T08:55:20;16.60;99.90
20483;DHT22;10400;53.198;6.592;2023-10-09T08:57:46;16.60;99.90
20483;DHT22;10400;53.198;6.592;2023-10-09T09:00:19;16.70;99.90
20483;DHT22;10400;53.198;6.592;2023-10-09T09:02:55;16.70;99.90
20483;DHT22;10400;53.198;6.592;2023-10-09T09:05:21;16.70;99.90
20483;DHT22;10400;53.198;6.592;2023-10-09T09:07:47;16.70;99.90
20483;DHT22;10400;53.198;6.592;2023-10-09T09:10:13;16.80;99.90
20483;DHT22;10400;53.198;6.592;2023-10-09T09:12:52;16.80;99.90
20483;DHT22;10400;53.198;6.592;2023-10-09T09:15:29;16.80;99.90
20483;DHT22;10400;53.198;6.592;2023-10-09T09:18:06;16.80;99.90
20483;DHT22;10400;53.198;6.592;2023-10-09T09:20:32;16.90;99.90
20483;DHT22;10400;53.198;6.592;2023-10-09T09:23:09;16.90;99.90
20483;DHT22;10400;53.198;6.592;2023-10-09T09:25:45;16.90;99.90
20483;DHT22;10400;53.198;6.592;2023-10-09T09:28:15;16.80;99.90
20483;DHT22;10400;53.198;6.592;2023-10-09T09:30:52;16.90;99.90
20483;DHT22;10400;53.198;6.592;2023-10-09T09:33:26;16.90;99.90
20483;DHT22;10400;53.198;6.592;2023-10-09T09:35:59;16.90;99.90
20483;DHT22;10400;53.198;6.592;2023-10-09T09:38:28;17.00;99.90
20483;DHT22;10400;53.198;6.592;2023-10-09T09:40:56;17.00;99.90
20483;DHT22;10400;53.198;6.592;2023-10-09T09:43:22;16.90;99.90
20483;DHT22;10400;53.198;6.592;2023-10-09T09:45:49;17.00;99.90
20483;DHT22;10400;53.198;6.592;2023-10-09T09:48:18;17.00;99.90
20483;DHT22;10400;53.198;6.592;2023-10-09T09:50:44;17.00;99.90
20483;DHT22;10400;53.198;6.592;2023-10-09T09:53:15;17.10;99.90
20483;DHT22;10400;53.198;6.592;2023-10-09T09:55:51;17.10;99.90
20483;DHT22;10400;53.198;6.592;2023-10-09T09:58:24;17.20;99.90
20483;DHT22;10400;53.198;6.592;2023-10-09T10:00:53;17.10;99.90
20483;DHT22;10400;53.198;6.592;2023-10-09T10:03:34;17.20;99.90
20483;DHT22;10400;53.198;6.592;2023-10-09T10:06:00;17.20;99.90
20483;DHT22;10400;53.198;6.592;2023-10-09T10:08:35;17.20;99.90
20483;DHT22;10400;53.198;6.592;2023-10-09T10:11:05;17.10;99.90
20483;DHT22;10400;53.198;6.592;2023-10-09T10:16:09;17.10;99.90
20483;DHT22;10400;53.198;6.592;2023-10-09T10:19:02;17.10;99.90
20483;DHT22;10400;53.198;6.592;2023-10-09T10:21:43;17.10;99.90
20483;DHT22;10400;53.198;6.592;2023-10-09T10:29:44;17.10;99.90
20483;DHT22;10400;53.198;6.592;2023-10-09T10:32:15;17.20;99.90
20483;DHT22;10400;53.198;6.592;2023-10-09T10:37:36;17.10;99.90
20483;DHT22;10400;53.198;6.592;2023-10-09T10:40:09;17.10;99.90
20483;DHT22;10400;53.198;6.592;2023-10-09T10:42:58;17.10;99.90
20483;DHT22;10400;53.198;6.592;2023-10-09T10:45:37;17.20;99.90
20483;DHT22;10400;53.198;6.592;2023-10-09T10:48:09;17.20;99.90
20483;DHT22;10400;53.198;6.592;2023-10-09T10:50:49;17.20;99.90
20483;DHT22;10400;53.198;6.592;2023-10-09T10:53:22;17.20;99.90
20483;DHT22;10400;53.198;6.592;2023-10-09T10:55:59;17.20;99.90
20483;DHT22;10400;53.198;6.592;2023-10-09T10:58:52;17.20;99.90
20483;DHT22;10400;53.198;6.592;2023-10-09T11:01:31;17.20;99.90
20483;DHT22;10400;53.198;6.592;2023-10-09T11:04:20;17.20;99.90
20483;DHT22;10400;53.198;6.592;2023-10-09T11:06:59;17.20;99.90
20483;DHT22;10400;53.198;6.592;2023-10-09T11:09:53;17.10;99.90
20483;DHT22;10400;53.198;6.592;2023-10-09T11:12:34;17.10;99.90
20483;DHT22;10400;53.198;6.592;2023-10-09T11:15:32;17.10;99.90
20483;DHT22;10400;53.198;6.592;2023-10-09T11:18:42;17.10;99.90
20483;DHT22;10400;53.198;6.592;2023-10-09T11:21:15;17.10;99.90
20483;DHT22;10400;53.198;6.592;2023-10-09T11:23:41;17.00;99.90
20483;DHT22;10400;53.198;6.592;2023-10-09T11:26:27;17.00;99.90
20483;DHT22;10400;53.198;6.592;2023-10-09T11:29:11;17.00;99.90
20483;DHT22;10400;53.198;6.592;2023-10-09T11:32:02;17.00;99.90
20483;DHT22;10400;53.198;6.592;2023-10-09T11:34:33;17.00;99.90
20483;DHT22;10400;53.198;6.592;2023-10-09T11:37:12;17.00;99.90
20483;DHT22;10400;53.198;6.592;2023-10-09T11:39:41;17.10;99.90
20483;DHT22;10400;53.198;6.592;2023-10-09T11:42:19;17.20;99.90
20483;DHT22;10400;53.198;6.592;2023-10-09T11:45:05;17.30;99.90
20483;DHT22;10400;53.198;6.592;2023-10-09T11:47:46;17.30;99.90
20483;DHT22;10400;53.198;6.592;2023-10-09T11:53:09;17.20;99.90
20483;DHT22;10400;53.198;6.592;2023-10-09T11:55:44;17.20;99.90
20483;DHT22;10400;53.198;6.592;2023-10-09T11:58:14;17.20;99.90
20483;DHT22;10400;53.198;6.592;2023-10-09T12:00:40;17.20;99.90
20483;DHT22;10400;53.198;6.592;2023-10-09T12:03:12;17.20;99.90
20483;DHT22;10400;53.198;6.592;2023-10-09T12:05:42;17.10;99.90
20483;DHT22;10400;53.198;6.592;2023-10-09T12:08:11;17.20;99.90
20483;DHT22;10400;53.198;6.592;2023-10-09T12:10:39;17.20;99.90
20483;DHT22;10400;53.198;6.592;2023-10-09T12:13:06;17.20;99.90
20483;DHT22;10400;53.198;6.592;2023-10-09T12:15:33;17.20;99.90
20483;DHT22;10400;53.198;6.592;2023-10-09T12:18:08;17.20;99.90
20483;DHT22;10400;53.198;6.592;2023-10-09T12:20:40;17.10;99.90
20483;DHT22;10400;53.198;6.592;2023-10-09T12:23:06;17.20;99.90
20483;DHT22;10400;53.198;6.592;2023-10-09T12:25:33;17.20;99.90
20483;DHT22;10400;53.198;6.592;2023-10-09T12:28:04;17.20;99.90
20483;DHT22;10400;53.198;6.592;2023-10-09T12:30:30;17.20;99.90
20483;DHT22;10400;53.198;6.592;2023-10-09T12:32:57;17.30;99.90
20483;DHT22;10400;53.198;6.592;2023-10-09T12:35:26;17.40;99.90
20483;DHT22;10400;53.198;6.592;2023-10-09T12:37:55;17.30;99.90
20483;DHT22;10400;53.198;6.592;2023-10-09T12:40:22;17.40;99.90
20483;DHT22;10400;53.198;6.592;2023-10-09T12:42:54;17.50;99.90
20483;DHT22;10400;53.198;6.592;2023-10-09T12:45:21;17.60;99.90
20483;DHT22;10400;53.198;6.592;2023-10-09T12:47:58;17.50;99.90
20483;DHT22;10400;53.198;6.592;2023-10-09T12:50:35;17.50;99.90
20483;DHT22;10400;53.198;6.592;2023-10-09T12:53:08;17.40;99.90
20483;DHT22;10400;53.198;6.592;2023-10-09T12:55:36;17.50;99.90
20483;DHT22;10400;53.198;6.592;2023-10-09T12:58:08;17.50;99.90
20483;DHT22;10400;53.198;6.592;2023-10-09T13:00:38;17.60;99.90
20483;DHT22;10400;53.198;6.592;2023-10-09T13:03:10;17.60;99.90
20483;DHT22;10400;53.198;6.592;2023-10-09T13:05:52;17.60;99.90
20483;DHT22;10400;53.198;6.592;2023-10-09T13:08:26;17.60;99.90
20483;DHT22;10400;53.198;6.592;2023-10-09T13:11:10;17.60;99.90
20483;DHT22;10400;53.198;6.592;2023-10-09T13:13:37;17.50;99.90
20483;DHT22;10400;53.198;6.592;2023-10-09T13:16:26;17.60;99.90
20483;DHT22;10400;53.198;6.592;2023-10-09T13:18:55;17.70;99.90
20483;DHT22;10400;53.198;6.592;2023-10-09T13:21:23;17.60;99.90
20483;DHT22;10400;53.198;6.592;2023-10-09T13:23:49;17.70;99.90
20483;DHT22;10400;53.198;6.592;2023-10-09T13:26:20;17.70;99.90
20483;DHT22;10400;53.198;6.592;2023-10-09T13:28:54;17.80;99.90
20483;DHT22;10400;53.198;6.592;2023-10-09T13:31:21;17.80;99.90
20483;DHT22;10400;53.198;6.592;2023-10-09T13:33:48;17.70;99.90
20483;DHT22;10400;53.198;6.592;2023-10-09T13:36:15;17.70;99.90
20483;DHT22;10400;53.198;6.592;2023-10-09T13:39:01;17.70;99.90
20483;DHT22;10400;53.198;6.592;2023-10-09T13:41:59;17.80;99.90
20483;DHT22;10400;53.198;6.592;2023-10-09T13:44:32;17.80;99.90
20483;DHT22;10400;53.198;6.592;2023-10-09T13:47:00;17.80;99.90
20483;DHT22;10400;53.198;6.592;2023-10-09T13:49:27;17.70;99.90
20483;DHT22;10400;53.198;6.592;2023-10-09T13:51:56;17.70;99.90
20483;DHT22;10400;53.198;6.592;2023-10-09T13:54:22;17.60;99.90
20483;DHT22;10400;53.198;6.592;2023-10-09T13:57:05;17.50;99.90
20483;DHT22;10400;53.198;6.592;2023-10-09T13:59:35;17.50;99.90
20483;DHT22;10400;53.198;6.592;2023-10-09T14:02:01;17.60;99.90
20483;DHT22;10400;53.198;6.592;2023-10-09T14:04:28;17.50;99.90
20483;DHT22;10400;53.198;6.592;2023-10-09T14:06:54;17.50;99.90
20483;DHT22;10400;53.198;6.592;2023-10-09T14:09:24;17.50;99.90
20483;DHT22;10400;53.198;6.592;2023-10-09T14:12:02;17.60;99.90
20483;DHT22;10400;53.198;6.592;2023-10-09T14:14:45;17.50;99.90
20483;DHT22;10400;53.198;6.592;2023-10-09T14:17:22;17.40;99.90
20483;DHT22;10400;53.198;6.592;2023-10-09T14:19:55;17.30;99.90
20483;DHT22;10400;53.198;6.592;2023-10-09T14:22:26;17.20;99.90
20483;DHT22;10400;53.198;6.592;2023-10-09T14:24:53;17.20;99.90
20483;DHT22;10400;53.198;6.592;2023-10-09T14:27:24;17.20;99.90
20483;DHT22;10400;53.198;6.592;2023-10-09T14:29:55;17.10;99.90
20483;DHT22;10400;53.198;6.592;2023-10-09T14:32:27;17.10;99.90
20483;DHT22;10400;53.198;6.592;2023-10-09T14:35:03;17.20;99.90
20483;DHT22;10400;53.198;6.592;2023-10-09T14:37:38;17.20;99.90
20483;DHT22;10400;53.198;6.592;2023-10-09T14:40:08;17.20;99.90
20483;DHT22;10400;53.198;6.592;2023-10-09T14:42:54;17.20;99.90
20483;DHT22;10400;53.198;6.592;2023-10-09T14:45:19;17.30;99.90
20483;DHT22;10400;53.198;6.592;2023-10-09T14:47:47;17.30;99.90
20483;DHT22;10400;53.198;6.592;2023-10-09T14:50:13;17.30;99.90
20483;DHT22;10400;53.198;6.592;2023-10-09T14:52:39;17.30;99.90
20483;DHT22;10400;53.198;6.592;2023-10-09T14:55:06;17.30;99.90
20483;DHT22;10400;53.198;6.592;2023-10-09T14:57:32;17.40;99.90
20483;DHT22;10400;53.198;6.592;2023-10-09T14:59:59;17.30;99.90
20483;DHT22;10400;53.198;6.592;2023-10-09T15:02:25;17.30;99.90
20483;DHT22;10400;53.198;6.592;2023-10-09T15:04:51;17.30;99.90
20483;DHT22;10400;53.198;6.592;2023-10-09T15:07:18;17.30;99.90
20483;DHT22;10400;53.198;6.592;2023-10-09T15:09:46;17.30;99.90
20483;DHT22;10400;53.198;6.592;2023-10-09T15:12:12;17.20;99.90
20483;DHT22;10400;53.198;6.592;2023-10-09T15:14:38;17.10;99.90
20483;DHT22;10400;53.198;6.592;2023-10-09T15:17:04;17.10;99.90
20483;DHT22;10400;53.198;6.592;2023-10-09T15:19:32;17.20;99.90
20483;DHT22;10400;53.198;6.592;2023-10-09T15:21:58;17.20;99.90
20483;DHT22;10400;53.198;6.592;2023-10-09T15:24:25;17.20;99.90
20483;DHT22;10400;53.198;6.592;2023-10-09T15:26:53;17.20;99.90
20483;DHT22;10400;53.198;6.592;2023-10-09T15:29:19;17.30;99.90
20483;DHT22;10400;53.198;6.592;2023-10-09T15:31:49;17.40;99.90
20483;DHT22;10400;53.198;6.592;2023-10-09T15:34:16;17.40;99.90
20483;DHT22;10400;53.198;6.592;2023-10-09T15:36:44;17.40;99.90
20483;DHT22;10400;53.198;6.592;2023-10-09T15:39:13;17.50;99.90
20483;DHT22;10400;53.198;6.592;2023-10-09T15:41:39;17.50;99.90
20483;DHT22;10400;53.198;6.592;2023-10-09T15:44:05;17.50;99.90
20483;DHT22;10400;53.198;6.592;2023-10-09T15:46:31;17.40;99.90
20483;DHT22;10400;53.198;6.592;2023-10-09T15:49:00;17.40;99.90
20483;DHT22;10400;53.198;6.592;2023-10-09T15:51:27;17.20;99.90
20483;DHT22;10400;53.198;6.592;2023-10-09T15:53:53;17.20;99.90
20483;DHT22;10400;53.198;6.592;2023-10-09T15:56:18;17.20;99.90
20483;DHT22;10400;53.198;6.592;2023-10-09T15:58:46;17.10;99.90
20483;DHT22;10400;53.198;6.592;2023-10-09T16:01:17;17.00;99.90
20483;DHT22;10400;53.198;6.592;2023-10-09T16:03:46;17.10;99.90
20483;DHT22;10400;53.198;6.592;2023-10-09T16:06:19;17.10;99.90
20483;DHT22;10400;53.198;6.592;2023-10-09T16:08:48;17.00;99.90
20483;DHT22;10400;53.198;6.592;2023-10-09T16:11:22;17.00;99.90
20483;DHT22;10400;53.198;6.592;2023-10-09T16:13:49;17.00;99.90
20483;DHT22;10400;53.198;6.592;2023-10-09T16:16:23;16.90;99.90
20483;DHT22;10400;53.198;6.592;2023-10-09T16:18:50;16.90;99.90
20483;DHT22;10400;53.198;6.592;2023-10-09T16:21:16;16.90;99.90
20483;DHT22;10400;53.198;6.592;2023-10-09T16:23:42;16.90;99.90
20483;DHT22;10400;53.198;6.592;2023-10-09T16:26:08;16.90;99.90
20483;DHT22;10400;53.198;6.592;2023-10-09T16:28:34;16.90;99.90
20483;DHT22;10400;53.198;6.592;2023-10-09T16:31:00;17.00;99.90